Coon Rapids, Minnesota
Current Conditions -  °F | °C
As of 6:14 AM on Tuesday 27 Jan 2015 (Local Time) from KANE Reporting Station
Overcast Overcast  
Wind Chill: 30°   Ceiling: 2200
Heat Index: 34°   Visibility: 10mi
Dew Point: 28°   Wind: 5mph
Humidity: 81%   Direction: 70°ENE
Pressure: 30.1"   Gusts: NA
Location:  45.17°N, 93.3°W
Report Text: KANE 271214Z AUTO 07004KT 10SM OVC022 01/M02 A3010 RMK AO2
Loading
Personal Weather Stations






























Interactive Weather Map New forecast layout! Learn more

10-Day Weather Forecast

Advertisements
Track Severe Weather on mobile